createdAt,value
2016-08-21T00:00:21.632Z,1007.21
2016-08-21T00:01:21.600Z,1007.2
2016-08-21T00:02:21.590Z,1007.27
2016-08-21T00:03:21.576Z,1007.21
2016-08-21T00:04:21.563Z,1007.18
2016-08-21T00:05:21.548Z,1007.15
2016-08-21T00:06:21.539Z,1007.13
2016-08-21T00:07:21.530Z,1007.13
2016-08-21T00:08:21.509Z,1007.13
2016-08-21T00:09:21.501Z,1007.16
2016-08-21T00:10:21.488Z,1007.16
2016-08-21T00:11:21.476Z,1007.14
2016-08-21T00:12:21.464Z,1007.19
2016-08-21T00:13:21.448Z,1007.22
2016-08-21T00:14:21.441Z,1007.2
2016-08-21T00:15:21.431Z,1007.2
2016-08-21T00:16:21.412Z,1007.25
2016-08-21T00:17:21.399Z,1007.26
2016-08-21T00:18:21.386Z,1007.25
2016-08-21T00:19:21.378Z,1007.28
2016-08-21T00:20:21.358Z,1007.27
2016-08-21T00:21:21.347Z,1007.28
2016-08-21T00:22:21.332Z,1007.3
2016-08-21T00:23:21.324Z,1007.22
2016-08-21T00:24:21.307Z,1007.26
2016-08-21T00:25:21.294Z,1007.29
2016-08-21T00:26:21.287Z,1007.25
2016-08-21T00:27:21.269Z,1007.24
2016-08-21T00:28:21.260Z,1007.32
2016-08-21T00:29:21.246Z,1007.34
2016-08-21T00:30:21.227Z,1007.34
2016-08-21T00:31:21.220Z,1007.35
2016-08-21T00:32:21.208Z,1007.3
2016-08-21T00:33:21.193Z,1007.31
2016-08-21T00:34:21.190Z,1007.31
2016-08-21T00:35:21.168Z,1007.36
2016-08-21T00:36:21.160Z,1007.32
2016-08-21T00:37:21.140Z,1007.36
2016-08-21T00:38:21.127Z,1007.35
2016-08-21T00:39:21.118Z,1007.35
2016-08-21T00:40:21.097Z,1007.37
2016-08-21T00:41:21.088Z,1007.36
2016-08-21T00:42:21.081Z,1007.34
2016-08-21T00:43:21.059Z,1007.33
2016-08-21T00:44:21.054Z,1007.36
2016-08-21T00:45:21.036Z,1007.34
2016-08-21T00:46:21.020Z,1007.34
2016-08-21T00:47:21.008Z,1007.31
2016-08-21T00:48:21.001Z,1007.32
2016-08-21T00:49:20.981Z,1007.36
2016-08-21T00:50:20.967Z,1007.36
2016-08-21T00:51:20.956Z,1007.33
2016-08-21T00:52:20.939Z,1007.35
2016-08-21T00:53:20.926Z,1007.34
2016-08-21T00:54:20.915Z,1007.31
2016-08-21T00:55:20.897Z,1007.32
2016-08-21T00:56:20.888Z,1007.31
2016-08-21T00:57:20.877Z,1007.3
2016-08-21T00:58:20.857Z,1007.31
2016-08-21T00:59:20.843Z,1007.32
2016-08-21T01:00:20.839Z,1007.35
2016-08-21T01:01:20.817Z,1007.33
2016-08-21T01:02:20.803Z,1007.33
2016-08-21T01:03:20.798Z,1007.38
2016-08-21T01:04:20.780Z,1007.36
2016-08-21T01:05:20.767Z,1007.35
2016-08-21T01:06:20.751Z,1007.34
2016-08-21T01:07:20.740Z,1007.35
2016-08-21T01:08:20.726Z,1007.32
2016-08-21T01:09:20.714Z,1007.33
2016-08-21T01:10:20.700Z,1007.35
2016-08-21T01:11:20.687Z,1007.3
2016-08-21T01:12:20.672Z,1007.31
2016-08-21T01:13:20.658Z,1007.32
2016-08-21T01:14:20.650Z,1007.33
2016-08-21T01:15:20.630Z,1007.35
2016-08-21T01:16:20.617Z,1007.35
2016-08-21T01:17:20.603Z,1007.33
2016-08-21T01:18:20.591Z,1007.35
2016-08-21T01:19:20.577Z,1007.33
2016-08-21T01:20:20.563Z,1007.37
2016-08-21T01:21:20.548Z,1007.35
2016-08-21T01:22:20.535Z,1007.37
2016-08-21T01:23:20.523Z,1007.37
2016-08-21T01:24:20.507Z,1007.33
2016-08-21T01:25:20.500Z,1007.35
2016-08-21T01:26:20.480Z,1007.37
2016-08-21T01:27:20.468Z,1007.36
2016-08-21T01:28:20.453Z,1007.34
2016-08-21T01:29:20.440Z,1007.36
2016-08-21T01:30:20.428Z,1007.34
2016-08-21T01:31:20.412Z,1007.29
2016-08-21T01:32:20.398Z,1007.36
2016-08-21T01:33:20.386Z,1007.33
2016-08-21T01:34:20.374Z,1007.31
2016-08-21T01:35:20.358Z,1007.33
2016-08-21T01:36:20.343Z,1007.34
2016-08-21T01:37:20.332Z,1007.36
2016-08-21T01:38:20.319Z,1007.38
2016-08-21T01:39:20.300Z,1007.37
2016-08-21T01:40:20.293Z,1007.4
2016-08-21T01:41:20.276Z,1007.4
2016-08-21T01:42:20.264Z,1007.38
2016-08-21T01:43:20.247Z,1007.38
2016-08-21T01:44:20.233Z,1007.4
2016-08-21T01:45:20.221Z,1007.4
2016-08-21T01:46:20.208Z,1007.41
2016-08-21T01:47:20.193Z,1007.44
2016-08-21T01:48:20.179Z,1007.42
2016-08-21T01:49:20.168Z,1007.41
2016-08-21T01:50:20.160Z,1007.39
2016-08-21T01:51:20.141Z,1007.39
2016-08-21T01:52:20.195Z,1007.39
2016-08-21T01:53:20.111Z,1007.34
2016-08-21T01:54:20.100Z,1007.37
2016-08-21T01:55:20.084Z,1007.42
2016-08-21T01:56:20.070Z,1007.41
2016-08-21T01:57:20.060Z,1007.4
2016-08-21T01:58:20.069Z,1007.41
2016-08-21T01:59:20.027Z,1007.4
2016-08-21T02:00:20.017Z,1007.4
2016-08-21T02:01:19.996Z,1007.43
2016-08-21T02:02:20.010Z,1007.38
2016-08-21T02:03:19.969Z,1007.4
2016-08-21T02:04:19.978Z,1007.35
2016-08-21T02:05:19.949Z,1007.4
2016-08-21T02:06:19.977Z,1007.39
2016-08-21T02:07:19.920Z,1007.36
2016-08-21T02:08:19.952Z,1007.34
2016-08-21T02:09:19.892Z,1007.36
2016-08-21T02:10:19.881Z,1007.34
2016-08-21T02:11:19.860Z,1007.4
2016-08-21T02:12:19.843Z,1007.39
2016-08-21T02:13:19.831Z,1007.4
2016-08-21T02:14:19.819Z,1007.38
2016-08-21T02:15:19.800Z,1007.38
2016-08-21T02:16:19.794Z,1007.36
2016-08-21T02:17:19.776Z,1007.36
2016-08-21T02:18:19.757Z,1007.4
2016-08-21T02:19:19.746Z,1007.43
2016-08-21T02:20:19.731Z,1007.39
2016-08-21T02:21:19.720Z,1007.38
2016-08-21T02:22:19.702Z,1007.35
2016-08-21T02:23:19.690Z,1007.38
2016-08-21T02:24:19.677Z,1007.39
2016-08-21T02:25:19.660Z,1007.38
2016-08-21T02:26:19.647Z,1007.38
2016-08-21T02:27:19.639Z,1007.38
2016-08-21T02:28:19.618Z,1007.38
2016-08-21T02:29:19.604Z,1007.34
2016-08-21T02:30:19.591Z,1007.37
2016-08-21T02:31:19.581Z,1007.35
2016-08-21T02:32:19.566Z,1007.35
2016-08-21T02:33:19.550Z,1007.38
2016-08-21T02:34:19.535Z,1007.4
2016-08-21T02:35:19.522Z,1007.4
2016-08-21T02:36:19.511Z,1007.41
2016-08-21T02:37:19.490Z,1007.41
2016-08-21T02:38:19.477Z,1007.4
2016-08-21T02:39:19.473Z,1007.4
2016-08-21T02:40:19.456Z,1007.41
2016-08-21T02:41:19.434Z,1007.4
2016-08-21T02:42:19.430Z,1007.41
2016-08-21T02:43:19.410Z,1007.4
2016-08-21T02:44:19.391Z,1007.4
2016-08-21T02:45:19.380Z,1007.36
2016-08-21T02:46:19.367Z,1007.41
2016-08-21T02:47:19.357Z,1007.41
2016-08-21T02:48:19.341Z,1007.42
2016-08-21T02:49:19.329Z,1007.45
2016-08-21T02:50:19.315Z,1007.45
2016-08-21T02:51:19.294Z,1007.45
2016-08-21T02:52:19.288Z,1007.47
2016-08-21T02:53:19.267Z,1007.49
2016-08-21T02:54:19.256Z,1007.46
2016-08-21T02:55:19.240Z,1007.49
2016-08-21T02:56:19.229Z,1007.44
2016-08-21T02:57:19.213Z,1007.51
2016-08-21T02:58:19.197Z,1007.49
2016-08-21T02:59:19.183Z,1007.51
2016-08-21T03:00:19.170Z,1007.52
2016-08-21T03:01:19.157Z,1007.51
2016-08-21T03:02:19.147Z,1007.51
2016-08-21T03:03:19.130Z,1007.48
2016-08-21T03:04:19.120Z,1007.51
2016-08-21T03:05:19.101Z,1007.47
2016-08-21T03:06:19.085Z,1007.51
2016-08-21T03:07:19.069Z,1007.52
2016-08-21T03:08:19.057Z,1007.51
2016-08-21T03:09:19.051Z,1007.51
2016-08-21T03:10:19.026Z,1007.5
2016-08-21T03:11:19.013Z,1007.5
2016-08-21T03:12:19.000Z,1007.48
2016-08-21T03:13:18.987Z,1007.5
2016-08-21T03:14:18.969Z,1007.49
2016-08-21T03:15:18.959Z,1007.47
2016-08-21T03:16:18.950Z,1007.52
2016-08-21T03:17:18.930Z,1007.51
2016-08-21T03:18:18.917Z,1007.49
2016-08-21T03:19:18.899Z,1007.5
2016-08-21T03:20:18.892Z,1007.48
2016-08-21T03:21:18.868Z,1007.51
2016-08-21T03:22:18.860Z,1007.48
2016-08-21T03:23:18.844Z,1007.47
2016-08-21T03:24:18.829Z,1007.44
2016-08-21T03:25:18.816Z,1007.44
2016-08-21T03:26:18.800Z,1007.41
2016-08-21T03:27:18.788Z,1007.43
2016-08-21T03:28:18.769Z,1007.44
2016-08-21T03:29:18.760Z,1007.44
2016-08-21T03:30:18.750Z,1007.39
2016-08-21T03:31:18.733Z,1007.43
2016-08-21T03:32:18.716Z,1007.44
2016-08-21T03:33:18.698Z,1007.46
2016-08-21T03:34:18.689Z,1007.44
2016-08-21T03:35:18.674Z,1007.48
2016-08-21T03:36:18.656Z,1007.47
2016-08-21T03:37:18.642Z,1007.46
2016-08-21T03:38:18.626Z,1007.49
2016-08-21T03:39:18.618Z,1007.48
2016-08-21T03:40:18.598Z,1007.47
2016-08-21T03:41:18.589Z,1007.44
2016-08-21T03:42:18.574Z,1007.47
2016-08-21T03:43:18.559Z,1007.52
2016-08-21T03:44:18.548Z,1007.49
2016-08-21T03:45:18.529Z,1007.51
2016-08-21T03:46:18.516Z,1007.53
2016-08-21T03:47:18.509Z,1007.53
2016-08-21T03:48:18.485Z,1007.56
2016-08-21T03:49:18.478Z,1007.51
2016-08-21T03:50:18.460Z,1007.54
2016-08-21T03:51:18.448Z,1007.56
2016-08-21T03:52:18.434Z,1007.55
2016-08-21T03:53:18.414Z,1007.57
2016-08-21T03:54:18.407Z,1007.58
2016-08-21T03:55:18.387Z,1007.55
2016-08-21T03:56:18.379Z,1007.56
2016-08-21T03:57:18.360Z,1007.55
2016-08-21T03:58:18.347Z,1007.54
2016-08-21T03:59:18.334Z,1007.53
2016-08-21T04:00:18.319Z,1007.55
2016-08-21T04:01:18.305Z,1007.59
2016-08-21T04:02:18.288Z,1007.6
2016-08-21T04:03:18.270Z,1007.61
2016-08-21T04:04:18.260Z,1007.6
2016-08-21T04:05:18.250Z,1007.61
2016-08-21T04:06:18.231Z,1007.55
2016-08-21T04:07:18.221Z,1007.58
2016-08-21T04:08:18.208Z,1007.49
2016-08-21T04:09:18.194Z,1007.52
2016-08-21T04:10:18.177Z,1007.52
2016-08-21T04:11:18.160Z,1007.51
2016-08-21T04:12:18.145Z,1007.5
2016-08-21T04:13:18.136Z,1007.51
2016-08-21T04:14:18.121Z,1007.49
2016-08-21T04:15:18.116Z,1007.51
2016-08-21T04:16:18.090Z,1007.5
2016-08-21T04:17:18.076Z,1007.49
2016-08-21T04:18:18.058Z,1007.5
2016-08-21T04:19:18.049Z,1007.48
2016-08-21T04:20:18.037Z,1007.48
2016-08-21T04:21:18.017Z,1007.49
2016-08-21T04:22:18.013Z,1007.48
2016-08-21T04:23:17.988Z,1007.47
2016-08-21T04:24:17.980Z,1007.45
2016-08-21T04:25:17.962Z,1007.48
2016-08-21T04:26:17.945Z,1007.44
2016-08-21T04:27:17.939Z,1007.43
2016-08-21T04:28:17.919Z,1007.41
2016-08-21T04:29:17.910Z,1007.43
2016-08-21T04:30:17.888Z,1007.42
2016-08-21T04:31:17.876Z,1007.46
2016-08-21T04:32:17.864Z,1007.43
2016-08-21T04:33:17.849Z,1007.4
2016-08-21T04:34:17.830Z,1007.43
2016-08-21T04:35:17.819Z,1007.45
2016-08-21T04:36:17.811Z,1007.47
2016-08-21T04:37:17.792Z,1007.47
2016-08-21T04:38:17.775Z,1007.45
2016-08-21T04:39:17.762Z,1007.51
2016-08-21T04:40:17.746Z,1007.5
2016-08-21T04:41:17.733Z,1007.51
2016-08-21T04:42:17.719Z,1007.52
2016-08-21T04:43:17.706Z,1007.53
2016-08-21T04:44:17.688Z,1007.52
2016-08-21T04:45:17.677Z,1007.51
2016-08-21T04:46:17.667Z,1007.51
2016-08-21T04:47:17.649Z,1007.51
2016-08-21T04:48:17.635Z,1007.47
2016-08-21T04:49:17.619Z,1007.51
2016-08-21T04:50:17.602Z,1007.49
2016-08-21T04:51:17.588Z,1007.49
2016-08-21T04:52:17.579Z,1007.5
2016-08-21T04:53:17.561Z,1007.52
2016-08-21T04:54:17.549Z,1007.56
2016-08-21T04:55:17.538Z,1007.53
2016-08-21T04:56:17.518Z,1007.53
2016-08-21T04:57:17.508Z,1007.56
2016-08-21T04:58:17.487Z,1007.56
2016-08-21T04:59:17.477Z,1007.54
2016-08-21T05:00:17.458Z,1007.54
2016-08-21T05:01:17.446Z,1007.54
2016-08-21T05:02:17.435Z,1007.54
2016-08-21T05:03:17.417Z,1007.57
2016-08-21T05:04:17.416Z,1007.56
2016-08-21T05:05:17.388Z,1007.55
2016-08-21T05:06:17.380Z,1007.55
2016-08-21T05:07:17.359Z,1007.53
2016-08-21T05:08:17.348Z,1007.52
2016-08-21T05:09:17.339Z,1007.57
2016-08-21T05:10:17.320Z,1007.55
2016-08-21T05:11:17.309Z,1007.56
2016-08-21T05:12:17.288Z,1007.53
2016-08-21T05:13:17.276Z,1007.55
2016-08-21T05:14:17.272Z,1007.54
2016-08-21T05:15:17.246Z,1007.57
2016-08-21T05:16:17.233Z,1007.58
2016-08-21T05:17:17.218Z,1007.59
2016-08-21T05:18:17.203Z,1007.59
2016-08-21T05:19:17.189Z,1007.58
2016-08-21T05:20:17.175Z,1007.59
2016-08-21T05:21:17.159Z,1007.62
2016-08-21T05:22:17.148Z,1007.61
2016-08-21T05:23:17.131Z,1007.59
2016-08-21T05:24:17.119Z,1007.58
2016-08-21T05:25:17.107Z,1007.59
2016-08-21T05:26:17.088Z,1007.62
2016-08-21T05:27:17.079Z,1007.6
2016-08-21T05:28:17.071Z,1007.67
2016-08-21T05:29:17.049Z,1007.63
2016-08-21T05:30:17.037Z,1007.65
2016-08-21T05:31:17.018Z,1007.71
2016-08-21T05:32:17.007Z,1007.67
2016-08-21T05:33:16.993Z,1007.7
2016-08-21T05:34:16.975Z,1007.7
2016-08-21T05:35:16.957Z,1007.74
2016-08-21T05:36:16.948Z,1007.72
2016-08-21T05:37:16.939Z,1007.76
2016-08-21T05:38:16.929Z,1007.75
2016-08-21T05:39:16.909Z,1007.77
2016-08-21T05:40:16.888Z,1007.71
2016-08-21T05:41:16.879Z,1007.75
2016-08-21T05:42:16.868Z,1007.71
2016-08-21T05:43:16.849Z,1007.85
2016-08-21T05:44:16.836Z,1007.74
2016-08-21T05:45:16.829Z,1007.76
2016-08-21T05:46:16.806Z,1007.73
2016-08-21T05:47:16.798Z,1007.73
2016-08-21T05:48:16.781Z,1007.74
2016-08-21T05:49:16.770Z,1007.72
2016-08-21T05:50:16.754Z,1007.69
2016-08-21T05:51:16.736Z,1007.74
2016-08-21T05:52:16.728Z,1007.73
2016-08-21T05:53:16.717Z,1007.75
2016-08-21T05:54:16.696Z,1007.84
2016-08-21T05:55:16.691Z,1007.72
2016-08-21T05:56:16.670Z,1007.77
2016-08-21T05:57:16.656Z,1007.8
2016-08-21T05:58:16.639Z,1007.77
2016-08-21T05:59:16.629Z,1007.73
2016-08-21T06:00:16.620Z,1007.71
2016-08-21T06:01:16.607Z,1007.73
2016-08-21T06:02:16.590Z,1007.72
2016-08-21T06:03:16.588Z,1007.74
2016-08-21T06:04:16.558Z,1007.75
2016-08-21T06:05:16.550Z,1007.77
2016-08-21T06:06:16.534Z,1007.75
2016-08-21T06:07:16.517Z,1007.76
2016-08-21T06:08:16.502Z,1007.81
2016-08-21T06:09:16.488Z,1007.78
2016-08-21T06:10:16.479Z,1007.77
2016-08-21T06:11:16.469Z,1007.81
2016-08-21T06:12:16.450Z,1007.8
2016-08-21T06:13:16.442Z,1007.8
2016-08-21T06:14:16.422Z,1007.86
2016-08-21T06:15:16.410Z,1007.81
2016-08-21T06:16:16.395Z,1007.8
2016-08-21T06:17:16.382Z,1007.83
2016-08-21T06:18:16.370Z,1007.81
2016-08-21T06:19:16.356Z,1007.83
2016-08-21T06:20:16.350Z,1007.79
2016-08-21T06:21:16.327Z,1007.76
2016-08-21T06:22:16.312Z,1007.8
2016-08-21T06:23:16.304Z,1007.8
2016-08-21T06:24:16.287Z,1007.78
2016-08-21T06:25:16.281Z,1007.81
2016-08-21T06:26:16.270Z,1007.78
2016-08-21T06:27:16.250Z,1007.8
2016-08-21T06:28:16.238Z,1007.77
2016-08-21T06:29:16.230Z,1007.82
2016-08-21T06:30:16.215Z,1007.79
2016-08-21T06:31:16.210Z,1007.86
2016-08-21T06:32:16.191Z,1007.82
2016-08-21T06:33:16.180Z,1007.84
2016-08-21T06:34:16.182Z,1007.89
2016-08-21T06:35:16.152Z,1007.9
2016-08-21T06:36:16.132Z,1007.96
2016-08-21T06:37:16.169Z,1007.86
2016-08-21T06:38:16.108Z,1007.93
2016-08-21T06:39:16.103Z,1007.9
2016-08-21T06:40:16.086Z,1007.88
2016-08-21T06:41:16.083Z,1007.92
2016-08-21T06:42:16.057Z,1007.96
2016-08-21T06:43:16.050Z,1007.99
2016-08-21T06:44:16.035Z,1008
2016-08-21T06:45:16.031Z,1008.03
2016-08-21T06:46:16.010Z,1008.02
2016-08-21T06:47:16.026Z,1008.04
2016-08-21T06:48:15.984Z,1008.03
2016-08-21T06:49:15.987Z,1008.08
2016-08-21T06:50:15.953Z,1007.98
2016-08-21T06:51:15.943Z,1007.98
2016-08-21T06:52:15.940Z,1007.99
2016-08-21T06:53:15.917Z,1008.08
2016-08-21T06:54:15.910Z,1008.06
2016-08-21T06:55:15.892Z,1008.03
2016-08-21T06:56:15.880Z,1008.03
2016-08-21T06:57:15.870Z,1008.03
2016-08-21T06:58:15.849Z,1008.03
2016-08-21T06:59:15.841Z,1008.09
2016-08-21T07:00:15.830Z,1007.98
2016-08-21T07:01:15.815Z,1007.98
2016-08-21T07:02:15.803Z,1008.06
2016-08-21T07:03:15.798Z,1008.05
2016-08-21T07:04:15.778Z,1008.03
2016-08-21T07:05:15.767Z,1008.07
2016-08-21T07:06:15.759Z,1008.05
2016-08-21T07:07:15.741Z,1008.05
2016-08-21T07:08:15.725Z,1008.06
2016-08-21T07:09:15.720Z,1008.05
2016-08-21T07:10:15.703Z,1008.05
2016-08-21T07:11:15.693Z,1008.1
2016-08-21T07:12:15.681Z,1008
2016-08-21T07:13:15.669Z,1008.11
2016-08-21T07:14:15.656Z,1008.15
2016-08-21T07:15:15.648Z,1008.09
2016-08-21T07:16:15.629Z,1008.16
2016-08-21T07:17:15.626Z,1008.25
2016-08-21T07:18:15.607Z,1008.32
2016-08-21T07:19:15.601Z,1008.13
2016-08-21T07:20:15.584Z,1008.3
2016-08-21T07:21:15.580Z,1008.27
2016-08-21T07:22:15.565Z,1008.22
2016-08-21T07:23:15.559Z,1008.42
2016-08-21T07:24:15.550Z,1008.32
2016-08-21T07:25:15.540Z,1008.26
2016-08-21T07:26:15.527Z,1008.2
2016-08-21T07:27:15.519Z,1008.09
2016-08-21T07:28:15.517Z,1008.1
2016-08-21T07:29:15.509Z,1008.16
2016-08-21T07:30:15.491Z,1008.08
2016-08-21T07:31:15.486Z,1008.32
2016-08-21T07:32:15.480Z,1008.41
2016-08-21T07:33:15.470Z,1008.54
2016-08-21T07:34:15.455Z,1008.31
2016-08-21T07:35:15.447Z,1008.36
2016-08-21T07:36:15.440Z,1008.41
2016-08-21T07:37:15.427Z,1008.14
2016-08-21T07:38:15.419Z,1008.24
2016-08-21T07:39:15.411Z,1008.13
2016-08-21T07:40:15.406Z,1008.24
2016-08-21T07:41:15.390Z,1008.21
2016-08-21T07:42:15.382Z,1008.21
2016-08-21T07:43:15.381Z,1008.3
2016-08-21T07:44:15.365Z,1008.23
2016-08-21T07:45:15.358Z,1008.41
2016-08-21T07:46:15.351Z,1008.26
2016-08-21T07:47:15.339Z,1008.22
2016-08-21T07:48:15.332Z,1008.39
2016-08-21T07:49:15.322Z,1008.28
2016-08-21T07:50:15.317Z,1008.21
2016-08-21T07:51:15.306Z,1008.26
2016-08-21T07:52:15.297Z,1008.29
2016-08-21T07:53:15.282Z,1008.27
2016-08-21T07:54:15.273Z,1008.24
2016-08-21T07:55:15.269Z,1008.24
2016-08-21T07:56:15.269Z,1008.25
2016-08-21T07:57:15.246Z,1008.28
2016-08-21T07:58:15.242Z,1008.24
2016-08-21T07:59:15.224Z,1008.3
2016-08-21T08:00:15.218Z,1008.34
2016-08-21T08:01:15.206Z,1008.33
2016-08-21T08:02:15.191Z,1008.39
2016-08-21T08:03:15.181Z,1008.39
2016-08-21T08:04:15.185Z,1008.33
2016-08-21T08:05:15.160Z,1008.38
2016-08-21T08:06:15.154Z,1008.44
2016-08-21T08:07:15.139Z,1008.44
2016-08-21T08:08:15.131Z,1008.43
2016-08-21T08:09:15.115Z,1008.53
2016-08-21T08:10:15.103Z,1008.49
2016-08-21T08:11:15.092Z,1008.51
2016-08-21T08:12:15.083Z,1008.46
2016-08-21T08:13:15.069Z,1008.52
2016-08-21T08:14:15.071Z,1008.44
2016-08-21T08:15:15.051Z,1008.56
2016-08-21T08:16:15.037Z,1008.37
2016-08-21T08:17:15.023Z,1008.51
2016-08-21T08:18:15.022Z,1008.45
2016-08-21T08:19:15.011Z,1008.49
2016-08-21T08:20:14.988Z,1008.5
2016-08-21T08:21:14.981Z,1008.54
2016-08-21T08:22:14.960Z,1008.52
2016-08-21T08:23:14.954Z,1008.57
2016-08-21T08:24:14.936Z,1008.61
2016-08-21T08:25:14.929Z,1008.61
2016-08-21T08:26:14.920Z,1008.56
2016-08-21T08:27:14.908Z,1008.62
2016-08-21T08:28:14.891Z,1008.57
2016-08-21T08:29:14.876Z,1008.59
2016-08-21T08:30:14.867Z,1008.59
2016-08-21T08:31:14.862Z,1008.63
2016-08-21T08:32:14.837Z,1008.62
2016-08-21T08:33:14.830Z,1008.65
2016-08-21T08:34:14.818Z,1008.62
2016-08-21T08:35:14.809Z,1008.69
2016-08-21T08:36:14.787Z,1008.67
2016-08-21T08:37:14.782Z,1008.67
2016-08-21T08:38:14.774Z,1008.69
2016-08-21T08:39:14.753Z,1008.77
2016-08-21T08:40:14.743Z,1008.65
2016-08-21T08:41:14.730Z,1008.74
2016-08-21T08:42:14.718Z,1008.68
2016-08-21T08:43:14.707Z,1008.73
2016-08-21T08:44:14.697Z,1008.68
2016-08-21T08:45:14.691Z,1008.65
2016-08-21T08:46:14.677Z,1008.64
2016-08-21T08:47:14.665Z,1008.7
2016-08-21T08:48:14.655Z,1008.71
2016-08-21T08:49:14.670Z,1008.69
2016-08-21T08:50:14.644Z,1008.64
2016-08-21T08:51:14.617Z,1008.67
2016-08-21T08:52:14.607Z,1008.68
2016-08-21T08:53:14.599Z,1008.7
2016-08-21T08:54:14.584Z,1008.67
2016-08-21T08:55:14.583Z,1008.74
2016-08-21T08:56:14.568Z,1008.71
2016-08-21T08:57:14.560Z,1008.72
2016-08-21T08:58:14.546Z,1008.7
2016-08-21T08:59:14.531Z,1008.68
2016-08-21T09:00:14.525Z,1008.72
2016-08-21T09:01:14.514Z,1008.65
2016-08-21T09:02:14.521Z,1008.69
2016-08-21T09:03:14.491Z,1008.79
2016-08-21T09:04:14.479Z,1008.78
2016-08-21T09:05:14.468Z,1008.74
2016-08-21T09:06:14.458Z,1008.83
2016-08-21T09:07:14.440Z,1008.76
2016-08-21T09:08:14.430Z,1008.8
2016-08-21T09:09:14.430Z,1008.84
2016-08-21T09:10:14.409Z,1008.89
2016-08-21T09:11:14.395Z,1008.79
2016-08-21T09:12:14.393Z,1008.82
2016-08-21T09:13:14.383Z,1008.83
2016-08-21T09:14:14.364Z,1008.9
2016-08-21T09:15:14.398Z,1008.85
2016-08-21T09:16:14.337Z,1008.87
2016-08-21T09:17:14.335Z,1008.82
2016-08-21T09:18:14.308Z,1008.91
2016-08-21T09:19:14.301Z,1008.85
2016-08-21T09:20:14.291Z,1008.98
2016-08-21T09:21:14.272Z,1008.93
2016-08-21T09:22:14.260Z,1008.89
2016-08-21T09:23:14.248Z,1008.99
2016-08-21T09:24:14.229Z,1009.03
2016-08-21T09:25:14.230Z,1009.05
2016-08-21T09:26:14.208Z,1008.98
2016-08-21T09:27:14.200Z,1009.04
2016-08-21T09:28:14.191Z,1009.06
2016-08-21T09:29:14.171Z,1009.09
2016-08-21T09:30:14.155Z,1009.05
2016-08-21T09:31:14.147Z,1009.07
2016-08-21T09:32:14.137Z,1009.05
2016-08-21T09:33:14.117Z,1009.02
2016-08-21T09:34:14.108Z,1009.09
2016-08-21T09:35:14.100Z,1009.16
2016-08-21T09:36:14.081Z,1009.2
2016-08-21T09:37:14.069Z,1009.18
2016-08-21T09:38:14.053Z,1009.22
2016-08-21T09:39:14.049Z,1009.31
2016-08-21T09:40:14.030Z,1009.26
2016-08-21T09:41:14.017Z,1009.37
2016-08-21T09:42:14.008Z,1009.37
2016-08-21T09:43:13.992Z,1009.29
2016-08-21T09:44:13.976Z,1009.38
2016-08-21T09:45:13.970Z,1009.37
2016-08-21T09:46:13.993Z,1009.32
2016-08-21T09:47:13.940Z,1009.41
2016-08-21T09:48:13.927Z,1009.3
2016-08-21T09:49:13.918Z,1009.38
2016-08-21T09:50:13.914Z,1009.43
2016-08-21T09:51:13.884Z,1009.34
2016-08-21T09:52:13.873Z,1009.3
2016-08-21T09:53:13.861Z,1009.33
2016-08-21T09:54:13.849Z,1009.27
2016-08-21T09:55:13.834Z,1009.31
2016-08-21T09:56:13.818Z,1009.25
2016-08-21T09:57:13.809Z,1009.28
2016-08-21T09:58:13.791Z,1009.22
2016-08-21T09:59:13.780Z,1009.18
2016-08-21T10:00:13.769Z,1009.24
2016-08-21T10:01:13.754Z,1009.22
2016-08-21T10:02:13.739Z,1009.18
2016-08-21T10:03:13.727Z,1009.22
2016-08-21T10:04:13.711Z,1009.2
2016-08-21T10:05:13.702Z,1009.28
2016-08-21T10:06:13.691Z,1009.26
2016-08-21T10:07:13.679Z,1009.27
2016-08-21T10:08:13.658Z,1009.27
2016-08-21T10:09:13.658Z,1009.27
2016-08-21T10:10:13.630Z,1009.3
2016-08-21T10:11:13.631Z,1009.24
2016-08-21T10:12:13.611Z,1009.33
2016-08-21T10:13:13.592Z,1009.41
2016-08-21T10:14:13.578Z,1009.38
2016-08-21T10:15:13.574Z,1009.34
2016-08-21T10:16:13.555Z,1009.43
2016-08-21T10:17:13.542Z,1009.36
2016-08-21T10:18:13.527Z,1009.37
2016-08-21T10:19:13.517Z,1009.33
2016-08-21T10:20:13.510Z,1009.32
2016-08-21T10:21:13.495Z,1009.35
2016-08-21T10:22:13.483Z,1009.39
2016-08-21T10:23:13.477Z,1009.36
2016-08-21T10:24:13.460Z,1009.42
2016-08-21T10:25:13.448Z,1009.37
2016-08-21T10:26:13.440Z,1009.35
2016-08-21T10:27:13.426Z,1009.35
2016-08-21T10:28:13.413Z,1009.31
2016-08-21T10:29:13.404Z,1009.4
2016-08-21T10:30:13.391Z,1009.38
2016-08-21T10:31:13.379Z,1009.37
2016-08-21T10:32:13.370Z,1009.47
2016-08-21T10:33:13.358Z,1009.43
2016-08-21T10:34:13.347Z,1009.4
2016-08-21T10:35:13.335Z,1009.31
2016-08-21T10:36:13.319Z,1009.44
2016-08-21T10:37:13.309Z,1009.52
2016-08-21T10:38:13.297Z,1009.49
2016-08-21T10:39:13.284Z,1009.46
2016-08-21T10:40:13.273Z,1009.49
2016-08-21T10:41:13.265Z,1009.54
2016-08-21T10:42:13.255Z,1009.49
2016-08-21T10:43:13.236Z,1009.54
2016-08-21T10:44:13.229Z,1009.57
2016-08-21T10:45:13.216Z,1009.58
2016-08-21T10:46:13.206Z,1009.57
2016-08-21T10:47:13.199Z,1009.56
2016-08-21T10:48:13.178Z,1009.46
2016-08-21T10:49:13.172Z,1009.55
2016-08-21T10:50:13.157Z,1009.51
2016-08-21T10:51:13.145Z,1009.58
2016-08-21T10:52:13.130Z,1009.49
2016-08-21T10:53:13.119Z,1009.54
2016-08-21T10:54:13.104Z,1009.55
2016-08-21T10:55:13.098Z,1009.5
2016-08-21T10:56:13.081Z,1009.58
2016-08-21T10:57:13.070Z,1009.59
2016-08-21T10:58:13.058Z,1009.58
2016-08-21T10:59:13.046Z,1009.5
2016-08-21T11:00:13.032Z,1009.53
2016-08-21T11:01:13.016Z,1009.56
2016-08-21T11:02:13.010Z,1009.61
2016-08-21T11:03:12.998Z,1009.62
2016-08-21T11:04:12.988Z,1009.57
2016-08-21T11:05:12.967Z,1009.62
2016-08-21T11:06:12.955Z,1009.59
2016-08-21T11:07:12.945Z,1009.61
2016-08-21T11:08:12.932Z,1009.56
2016-08-21T11:09:12.920Z,1009.59
2016-08-21T11:10:12.911Z,1009.53
2016-08-21T11:11:12.897Z,1009.59
2016-08-21T11:12:12.887Z,1009.59
2016-08-21T11:13:12.871Z,1009.63
2016-08-21T11:14:12.858Z,1009.58
2016-08-21T11:15:12.845Z,1009.58
2016-08-21T11:16:12.828Z,1009.55
2016-08-21T11:17:12.817Z,1009.54
2016-08-21T11:18:12.807Z,1009.59
2016-08-21T11:19:12.800Z,1009.55
2016-08-21T11:20:12.781Z,1009.61
2016-08-21T11:21:12.765Z,1009.57
2016-08-21T11:22:12.752Z,1009.56
2016-08-21T11:23:12.746Z,1009.59
2016-08-21T11:24:12.726Z,1009.58
2016-08-21T11:25:12.719Z,1009.55
2016-08-21T11:26:12.706Z,1009.58
2016-08-21T11:27:12.695Z,1009.62
2016-08-21T11:28:12.680Z,1009.6
2016-08-21T11:29:12.666Z,1009.57
2016-08-21T11:30:12.652Z,1009.56
2016-08-21T11:31:12.640Z,1009.62
2016-08-21T11:32:12.628Z,1009.63
2016-08-21T11:33:12.619Z,1009.69
2016-08-21T11:34:12.601Z,1009.68
2016-08-21T11:35:12.590Z,1009.66
2016-08-21T11:36:12.584Z,1009.66
2016-08-21T11:37:12.564Z,1009.72
2016-08-21T11:38:12.547Z,1009.73
2016-08-21T11:39:12.570Z,1009.72
2016-08-21T11:40:12.525Z,1009.76
2016-08-21T11:41:12.513Z,1009.78
2016-08-21T11:42:12.499Z,1009.84
2016-08-21T11:43:12.487Z,1009.82
2016-08-21T11:44:12.480Z,1009.75
2016-08-21T11:45:12.459Z,1009.75
2016-08-21T11:46:12.448Z,1009.83
2016-08-21T11:47:12.430Z,1009.83
2016-08-21T11:48:12.421Z,1009.85
2016-08-21T11:49:12.408Z,1009.85
2016-08-21T11:50:12.396Z,1009.88
2016-08-21T11:51:12.383Z,1009.87
2016-08-21T11:52:12.368Z,1009.85
2016-08-21T11:53:12.358Z,1009.84
2016-08-21T11:54:12.344Z,1009.82
2016-08-21T11:55:12.327Z,1009.9
2016-08-21T11:56:12.319Z,1009.89
2016-08-21T11:57:12.306Z,1009.84
2016-08-21T11:58:12.298Z,1009.85
2016-08-21T11:59:12.277Z,1009.95
2016-08-21T12:00:12.266Z,1009.88
2016-08-21T12:01:12.259Z,1009.93
2016-08-21T12:02:12.246Z,1009.94
2016-08-21T12:03:12.233Z,1009.97
2016-08-21T12:04:12.231Z,1009.92
2016-08-21T12:05:12.203Z,1009.92
2016-08-21T12:06:12.191Z,1009.93
2016-08-21T12:07:12.177Z,1009.97
2016-08-21T12:08:12.187Z,1010.01